createdAt,value
2022-11-05T00:03:50.393Z,100.00
2022-11-05T00:09:13.565Z,100.00
2022-11-05T00:14:35.254Z,100.00
2022-11-05T00:19:39.148Z,100.00
2022-11-05T00:25:01.789Z,100.00
2022-11-05T00:30:06.845Z,100.00
2022-11-05T00:35:11.172Z,100.00
2022-11-05T00:40:18.954Z,100.00
2022-11-05T00:45:22.872Z,100.00
2022-11-05T00:50:26.837Z,100.00
2022-11-05T00:55:34.847Z,100.00
2022-11-05T01:00:41.810Z,100.00
2022-11-05T01:05:47.884Z,100.00
2022-11-05T01:10:55.725Z,100.00
2022-11-05T01:16:05.613Z,100.00
2022-11-05T01:21:15.860Z,100.00
2022-11-05T01:26:21.429Z,100.00
2022-11-05T01:31:25.719Z,100.00
2022-11-05T01:36:29.696Z,100.00
2022-11-05T01:41:35.058Z,100.00
2022-11-05T01:46:42.956Z,100.00
2022-11-05T01:51:48.326Z,100.00
2022-11-05T01:56:58.988Z,100.00
2022-11-05T02:02:03.798Z,100.00
2022-11-05T02:07:10.668Z,100.00
2022-11-05T02:12:16.243Z,100.00
2022-11-05T02:17:29.897Z,100.00
2022-11-05T02:23:05.777Z,100.00
2022-11-05T02:28:33.705Z,100.00
2022-11-05T02:33:45.163Z,100.00
2022-11-05T02:38:57.970Z,100.00
2022-11-05T02:44:16.261Z,100.00
2022-11-05T02:49:32.752Z,100.00
2022-11-05T02:54:40.153Z,100.00
2022-11-05T02:59:43.839Z,100.00
2022-11-05T03:04:49.212Z,100.00
2022-11-05T03:10:12.898Z,100.00
2022-11-05T03:15:27.844Z,100.00
2022-11-05T03:20:38.863Z,100.00
2022-11-05T03:25:50.439Z,100.00
2022-11-05T03:30:57.394Z,100.00
2022-11-05T03:36:08.439Z,100.00
2022-11-05T03:41:16.879Z,100.00
2022-11-05T03:46:27.941Z,100.00
2022-11-05T03:51:39.925Z,100.00
2022-11-05T03:56:50.389Z,100.00
2022-11-05T04:01:55.292Z,100.00
2022-11-05T04:07:18.050Z,100.00
2022-11-05T04:12:39.804Z,100.00
2022-11-05T04:17:43.819Z,100.00
2022-11-05T04:23:06.322Z,100.00
2022-11-05T04:28:10.368Z,100.00
2022-11-05T04:33:16.150Z,100.00
2022-11-05T04:38:21.835Z,100.00
2022-11-05T04:43:25.879Z,100.00
2022-11-05T04:48:30.234Z,100.00
2022-11-05T04:53:35.588Z,100.00
2022-11-05T04:58:43.124Z,100.00
2022-11-05T05:03:48.428Z,100.00
2022-11-05T05:08:53.849Z,100.00
2022-11-05T05:13:57.781Z,100.00
2022-11-05T05:19:02.073Z,100.00
2022-11-05T05:24:09.378Z,100.00
2022-11-05T05:29:14.076Z,100.00
2022-11-05T05:34:20.419Z,100.00
2022-11-05T05:39:27.058Z,100.00
2022-11-05T05:44:30.978Z,100.00
2022-11-05T05:49:35.063Z,100.00
2022-11-05T05:54:43.005Z,100.00
2022-11-05T05:59:47.265Z,100.00
2022-11-05T06:04:51.239Z,100.00
2022-11-05T06:09:56.909Z,100.00
2022-11-05T06:15:01.202Z,100.00
2022-11-05T06:20:10.031Z,100.00
2022-11-05T06:25:15.598Z,100.00
2022-11-05T06:30:21.681Z,100.00
2022-11-05T06:35:31.200Z,100.00
2022-11-05T06:40:36.702Z,100.00
2022-11-05T06:45:40.653Z,100.00
2022-11-05T06:50:46.008Z,100.00
2022-11-05T06:55:51.385Z,100.00
2022-11-05T07:00:55.406Z,100.00
2022-11-05T07:06:01.084Z,100.00
2022-11-05T07:11:07.242Z,100.00
2022-11-05T07:16:11.228Z,100.00
2022-11-05T07:21:15.296Z,100.00
2022-11-05T07:26:23.359Z,100.00
2022-11-05T07:31:27.322Z,100.00
2022-11-05T07:36:31.338Z,100.00
2022-11-05T07:41:39.337Z,100.00
2022-11-05T07:46:43.303Z,100.00
2022-11-05T07:51:47.379Z,100.00
2022-11-05T07:56:55.140Z,100.00
2022-11-05T08:01:59.525Z,100.00
2022-11-05T08:07:03.581Z,100.00
2022-11-05T08:12:10.091Z,100.00
2022-11-05T08:17:18.501Z,95.30
2022-11-05T08:22:22.617Z,92.20
2022-11-05T08:27:28.044Z,91.43
2022-11-05T08:32:32.244Z,82.08
2022-11-05T08:37:36.228Z,79.86
2022-11-05T08:42:41.590Z,78.07
2022-11-05T08:47:45.536Z,72.68
2022-11-05T08:52:49.484Z,69.63
2022-11-05T08:57:58.319Z,66.79
2022-11-05T09:03:03.724Z,68.18
2022-11-05T09:08:08.516Z,64.95
2022-11-05T09:13:18.996Z,58.38
2022-11-05T09:18:23.691Z,55.74
2022-11-05T09:23:28.231Z,51.65
2022-11-05T09:28:33.662Z,47.59
2022-11-05T09:33:38.802Z,43.07
2022-11-05T09:38:44.138Z,38.09
2022-11-05T09:43:54.578Z,36.03
2022-11-05T09:49:04.296Z,36.54
2022-11-05T09:54:08.575Z,36.43
2022-11-05T09:59:20.715Z,37.25
2022-11-05T10:04:28.500Z,34.94
2022-11-05T10:09:37.409Z,36.07
2022-11-05T10:14:48.532Z,32.75
2022-11-05T10:19:59.419Z,29.76
2022-11-05T10:25:03.618Z,32.54
2022-11-05T10:30:14.902Z,31.50
2022-11-05T10:35:22.697Z,31.32
2022-11-05T10:40:37.062Z,30.47
2022-11-05T10:45:53.740Z,31.05
2022-11-05T10:50:58.883Z,30.62
2022-11-05T10:56:03.101Z,30.26
2022-11-05T11:01:13.704Z,30.29
2022-11-05T11:06:23.534Z,27.46
2022-11-05T11:11:31.253Z,26.36
2022-11-05T11:16:39.367Z,27.89
2022-11-05T11:21:43.331Z,27.60
2022-11-05T11:26:47.318Z,28.08
2022-11-05T11:31:56.300Z,28.05
2022-11-05T11:37:06.576Z,27.96
2022-11-05T11:42:21.105Z,27.76
2022-11-05T11:47:28.980Z,31.83
2022-11-05T11:52:34.545Z,30.54
2022-11-05T11:57:45.184Z,28.51
2022-11-05T12:03:18.708Z,29.11
2022-11-05T12:08:45.520Z,29.10
2022-11-05T12:14:14.239Z,31.01
2022-11-05T12:19:32.886Z,32.29
2022-11-05T12:25:09.723Z,32.37
2022-11-05T12:30:17.135Z,34.15
2022-11-05T12:35:47.016Z,33.91
2022-11-05T12:41:06.609Z,34.04
2022-11-05T12:46:27.717Z,34.65
2022-11-05T12:51:42.895Z,35.00
2022-11-05T12:56:50.131Z,36.89
2022-11-05T13:01:58.346Z,46.75
2022-11-05T13:07:07.664Z,48.68
2022-11-05T13:12:14.712Z,52.22
2022-11-05T13:17:21.303Z,54.58
2022-11-05T13:22:36.652Z,56.96
2022-11-05T13:27:51.617Z,60.99
2022-11-05T13:33:01.117Z,65.01
2022-11-05T13:38:30.423Z,67.19
2022-11-05T13:44:04.402Z,69.41
2022-11-05T13:49:49.346Z,72.08
2022-11-05T13:55:17.676Z,75.35
2022-11-05T14:00:24.126Z,76.12
2022-11-05T14:05:34.420Z,87.71
2022-11-05T14:10:42.916Z,91.54
2022-11-05T14:16:02.496Z,93.41
2022-11-05T14:21:08.267Z,100.00
2022-11-05T14:26:22.619Z,100.00
2022-11-05T14:32:08.722Z,100.00
2022-11-05T14:37:28.173Z,100.00
2022-11-05T14:42:33.550Z,100.00
2022-11-05T14:47:41.856Z,100.00
2022-11-05T14:52:53.365Z,100.00
2022-11-05T14:58:32.097Z,100.00
2022-11-05T15:04:02.703Z,100.00
2022-11-05T15:09:30.213Z,100.00
2022-11-05T15:14:40.792Z,100.00
2022-11-05T15:19:45.940Z,100.00
2022-11-05T15:24:50.256Z,100.00
2022-11-05T15:29:55.708Z,100.00
2022-11-05T15:34:59.703Z,96.70
2022-11-05T15:40:03.871Z,98.05
2022-11-05T15:45:22.457Z,100.00
2022-11-05T15:50:27.494Z,100.00
2022-11-05T15:55:31.505Z,100.00
2022-11-05T16:00:37.979Z,97.62
2022-11-05T16:05:45.110Z,93.32
2022-11-05T16:10:50.893Z,93.67
2022-11-05T16:16:00.931Z,92.04
2022-11-05T16:21:08.451Z,92.77
2022-11-05T16:32:07.854Z,95.52
2022-11-05T16:37:15.767Z,100.00
2022-11-05T16:42:38.751Z,95.88
2022-11-05T16:47:45.370Z,100.00
2022-11-05T16:52:49.765Z,99.13
2022-11-05T16:57:55.852Z,98.56
2022-11-05T17:03:01.256Z,100.00
2022-11-05T17:08:05.573Z,100.00
2022-11-05T17:13:13.227Z,100.00
2022-11-05T17:18:19.668Z,100.00
2022-11-05T17:23:26.814Z,100.00
2022-11-05T17:28:31.979Z,100.00
2022-11-05T17:33:37.894Z,100.00
2022-11-05T17:38:42.239Z,100.00
2022-11-05T17:43:46.387Z,100.00
2022-11-05T17:48:51.784Z,100.00
2022-11-05T17:53:57.661Z,100.00
2022-11-05T17:59:01.874Z,100.00
2022-11-05T18:04:09.204Z,100.00
2022-11-05T18:09:14.052Z,100.00
2022-11-05T18:14:23.894Z,100.00
2022-11-05T18:19:30.332Z,100.00
2022-11-05T18:24:34.921Z,100.00
2022-11-05T18:29:39.156Z,100.00
2022-11-05T18:34:44.692Z,100.00
2022-11-05T18:39:52.545Z,100.00
2022-11-05T18:44:56.561Z,100.00
2022-11-05T18:50:02.153Z,100.00
2022-11-05T18:55:08.807Z,100.00
2022-11-05T19:00:13.939Z,100.00
2022-11-05T19:05:34.729Z,100.00
2022-11-05T19:10:41.274Z,100.00
2022-11-05T19:15:45.421Z,100.00
2022-11-05T19:20:52.000Z,100.00
2022-11-05T19:25:56.054Z,100.00
2022-11-05T19:31:00.009Z,100.00
2022-11-05T19:36:07.465Z,100.00
2022-11-05T19:41:13.991Z,100.00
2022-11-05T19:46:19.878Z,100.00
2022-11-05T19:51:27.698Z,100.00
2022-11-05T19:56:34.525Z,100.00
2022-11-05T20:01:38.763Z,100.00
2022-11-05T20:06:44.531Z,100.00
2022-11-05T20:11:48.839Z,100.00
2022-11-05T20:16:53.096Z,100.00
2022-11-05T20:22:00.912Z,100.00
2022-11-05T20:27:05.274Z,100.00
2022-11-05T20:32:10.223Z,100.00
2022-11-05T20:37:15.570Z,100.00
2022-11-05T20:42:19.812Z,100.00
2022-11-05T20:47:23.771Z,100.00
2022-11-05T20:52:29.644Z,100.00
2022-11-05T20:57:33.740Z,100.00
2022-11-05T21:02:39.523Z,100.00
2022-11-05T21:07:45.031Z,100.00
2022-11-05T21:12:48.957Z,100.00
2022-11-05T21:17:52.905Z,100.00
2022-11-05T21:22:58.576Z,100.00
2022-11-05T21:28:02.474Z,100.00
2022-11-05T21:33:07.453Z,100.00
2022-11-05T21:38:14.088Z,100.00
2022-11-05T21:43:18.557Z,100.00
2022-11-05T21:48:22.552Z,100.00
2022-11-05T21:53:45.839Z,100.00
2022-11-05T21:59:07.321Z,100.00
2022-11-05T22:04:11.416Z,100.00
2022-11-05T22:09:16.797Z,100.00
2022-11-05T22:14:20.800Z,100.00
2022-11-05T22:19:25.307Z,100.00
2022-11-05T22:24:31.939Z,100.00
2022-11-05T22:29:38.034Z,100.00
2022-11-05T22:34:44.019Z,100.00
2022-11-05T22:39:49.631Z,100.00
2022-11-05T22:44:53.556Z,100.00
2022-11-05T22:49:58.307Z,100.00
2022-11-05T22:55:06.212Z,100.00
2022-11-05T23:00:18.284Z,100.00
2022-11-05T23:05:22.162Z,100.00
2022-11-05T23:10:44.785Z,100.00
2022-11-05T23:16:06.116Z,100.00
2022-11-05T23:21:27.811Z,100.00
2022-11-05T23:26:51.423Z,100.00
2022-11-05T23:32:13.100Z,100.00
2022-11-05T23:37:35.022Z,100.00
2022-11-05T23:42:57.602Z,100.00
2022-11-05T23:48:19.992Z,100.00
2022-11-05T23:53:24.066Z,100.00
2022-11-05T23:58:29.536Z,100.00
